Andover, New York
Current Conditions -  °F | °C
As of 2:42 AM on Wednesday 22 Oct 2014 (Local Time) from KELZ Reporting Station
Haze Haze  
Wind Chill: 38°   Ceiling: 200
Heat Index: 43°   Visibility: 0.75mi
Dew Point: 41°   Wind: 8mph
Humidity: 93%   Direction: 360°N
Pressure: 30.03"   Gusts: NA
Location:  42.16°N, 77.8°W
Report Text: KELZ 220642Z AUTO 36007KT 3/4SM BR VV002 06/05 A3003 RMK AO2 T00610050
Loading
Personal Weather Stations






























Interactive Weather Map New forecast layout! Learn more

10-Day Weather Forecast

Advertisements
Track Severe Weather on mobile